LiveATC.Net - Listen to live air traffic control over the Internet!


ICAO: KFSD  IATA: FSD   Airport: Joe Foss Field Airport
City: Sioux Falls   State/Province: South Dakota
Country: United States   Continent: North America
KFSD METAR Weather: KFSD 181056Z 27005KT 10SM FEW080 03/M04 A3000 RMK AO2 SLP165 T00281039
KFSD Flight Activity (FlightAware)
KFSD Airport Info   (iFlightPlanner)
KFSD VFR Sectional Chart   (iFlightPlanner) 
KFSD IFR Low Chart   (iFlightPlanner) 

KFSD Twr/App/Dep/ZMP
Feed Status: UP   Listeners: 1
Listen in your browser - HTML5 player (in browser, HTML5)
Click here to listen with your own player (launches your MP3 player)
Archive Access: KFSD Twr/App/Dep/ZMP
FacilityFrequency
Minneapolis Center (Sector 33 PIR Low)132.050
Sioux Falls Approach/Departure125.800
Sioux Falls Tower118.300

NOTICE

Unauthorized use prohibited. See LiveATC.net Terms of Service


Airport/ARTCC Code
Frequency Search
(e.g., 124.400, 128.75)
Site-wide search
 


Browse Feeds
Top 50 Feeds
HF Oceanic Feeds
Coverage Map
Bad Weather Areas

LiveATC FAQ
Offer LiveATC feed
Contact LiveATC.net
Press Inquiries

LiveATC on iPhone
LiveATC on Android

Windows Phone
Windows 8/10

LiveATC Mobile
(Mobile browser)

ATC Audio Archives
Interesting Recordings

LiveATC Forums


Home Page
About LiveATC.net
Make a Donation
Terms of Use
Privacy Policy

Canadian Air Freqs

AIRMETs/SIGMETs

FAA Airport Status
Nat'l Airspace Status
Arrival Demand Charts


Server Software By:
Icecast.org
Liquidsoap